createdAt,value
2024-02-13T00:01:19.307Z,17.15
2024-02-13T00:03:47.557Z,17.16
2024-02-13T00:06:15.428Z,17.11
2024-02-13T00:08:45.767Z,17.05
2024-02-13T00:11:15.273Z,17.04
2024-02-13T00:13:47.735Z,17.06
2024-02-13T00:16:19.210Z,17.04
2024-02-13T00:18:50.895Z,17.02
2024-02-13T00:21:18.810Z,16.98
2024-02-13T00:23:46.471Z,16.87
2024-02-13T00:26:14.426Z,16.77
2024-02-13T00:28:41.920Z,16.71
2024-02-13T00:31:10.018Z,16.69
2024-02-13T00:33:37.540Z,16.68
2024-02-13T00:36:05.174Z,16.67
2024-02-13T00:38:32.538Z,16.73
2024-02-13T00:41:00.000Z,16.80
2024-02-13T00:43:29.924Z,16.84
2024-02-13T00:45:58.476Z,16.87
2024-02-13T00:48:28.068Z,16.87
2024-02-13T00:50:56.488Z,16.83
2024-02-13T00:53:24.100Z,16.88
2024-02-13T00:55:52.765Z,16.93
2024-02-13T00:58:20.275Z,16.95
2024-02-13T01:00:47.708Z,16.94
2024-02-13T01:03:15.219Z,16.95
2024-02-13T01:05:42.926Z,16.99
2024-02-13T01:08:11.964Z,16.98
2024-02-13T01:10:39.506Z,16.90
2024-02-13T01:13:06.934Z,16.88
2024-02-13T01:15:34.461Z,16.88
2024-02-13T01:18:02.095Z,16.87
2024-02-13T01:20:29.710Z,16.88
2024-02-13T01:22:57.288Z,16.91
2024-02-13T01:25:24.745Z,16.91
2024-02-13T01:27:52.175Z,16.95
2024-02-13T01:30:20.113Z,17.02
2024-02-13T01:32:48.589Z,17.11
2024-02-13T01:35:17.617Z,17.18
2024-02-13T01:37:45.071Z,17.29
2024-02-13T01:40:12.788Z,17.37
2024-02-13T01:42:40.127Z,17.40
2024-02-13T01:45:08.311Z,17.41
2024-02-13T01:47:37.229Z,17.39
2024-02-13T01:50:07.683Z,17.38
2024-02-13T01:52:35.168Z,17.41
2024-02-13T01:55:03.940Z,17.45
2024-02-13T01:57:32.958Z,17.45
2024-02-13T02:00:00.771Z,17.46
2024-02-13T02:02:28.214Z,17.46
2024-02-13T02:04:55.653Z,17.43
2024-02-13T02:07:24.552Z,17.41
2024-02-13T02:09:52.266Z,17.41
2024-02-13T02:12:19.679Z,17.43
2024-02-13T02:14:47.152Z,17.44
2024-02-13T02:17:14.966Z,17.42
2024-02-13T02:19:42.481Z,17.37
2024-02-13T02:22:10.410Z,17.32
2024-02-13T02:24:37.860Z,17.27
2024-02-13T02:27:05.337Z,17.21
2024-02-13T02:29:34.039Z,17.21
2024-02-13T02:32:01.601Z,17.23
2024-02-13T02:34:29.981Z,17.27
2024-02-13T02:36:57.478Z,17.26
2024-02-13T02:39:25.246Z,17.22
2024-02-13T02:41:53.241Z,17.14
2024-02-13T02:44:21.199Z,17.06
2024-02-13T02:46:49.095Z,17.02
2024-02-13T02:49:18.356Z,16.99
2024-02-13T02:51:47.549Z,16.94
2024-02-13T02:54:15.120Z,16.91
2024-02-13T02:56:42.738Z,16.89
2024-02-13T02:59:10.329Z,16.87
2024-02-13T03:01:38.203Z,16.85
2024-02-13T03:04:10.367Z,16.84
2024-02-13T03:06:40.016Z,16.87
2024-02-13T03:09:08.405Z,16.89
2024-02-13T03:11:36.127Z,16.91
2024-02-13T03:14:05.201Z,16.89
2024-02-13T03:16:36.200Z,16.80
2024-02-13T03:19:04.483Z,16.71
2024-02-13T03:21:32.181Z,16.63
2024-02-13T03:24:00.840Z,16.58
2024-02-13T03:26:28.479Z,16.56
2024-02-13T03:28:57.267Z,16.54
2024-02-13T03:31:24.975Z,16.53
2024-02-13T03:33:52.635Z,16.45
2024-02-13T03:36:21.040Z,16.36
2024-02-13T03:38:54.425Z,16.29
2024-02-13T03:41:22.238Z,16.26
2024-02-13T03:43:50.781Z,16.27
2024-02-13T03:46:18.327Z,16.26
2024-02-13T03:48:46.146Z,16.25
2024-02-13T03:51:14.545Z,16.21
2024-02-13T03:53:42.249Z,16.15
2024-02-13T03:56:10.940Z,16.13
2024-02-13T04:01:18.579Z,15.00
2024-02-13T04:03:46.130Z,16.02
2024-02-13T04:06:13.772Z,16.15
2024-02-13T04:08:46.010Z,16.15
2024-02-13T04:11:14.319Z,16.07
2024-02-13T04:13:41.808Z,15.99
2024-02-13T04:16:09.544Z,15.89
2024-02-13T04:18:37.235Z,15.82
2024-02-13T04:21:05.512Z,15.78
2024-02-13T04:23:34.137Z,15.76
2024-02-13T04:26:01.749Z,15.73
2024-02-13T04:28:29.120Z,15.68
2024-02-13T04:30:56.583Z,15.63
2024-02-13T16:19:30.953Z,17.86
2024-02-13T16:21:59.326Z,18.93
2024-02-13T16:24:26.978Z,19.07
2024-02-13T16:27:38.580Z,19.13
2024-02-13T16:30:09.474Z,19.20
2024-02-13T16:32:40.697Z,19.24
2024-02-13T16:35:10.671Z,19.22
2024-02-13T16:37:41.865Z,19.22
2024-02-13T16:40:12.612Z,19.19
2024-02-13T16:42:40.232Z,19.18
2024-02-13T16:45:09.060Z,19.15
2024-02-13T16:47:39.134Z,19.19
2024-02-13T16:50:17.011Z,19.21
2024-02-13T16:52:44.917Z,19.24
2024-02-13T16:55:13.614Z,19.24
2024-02-13T16:57:45.719Z,19.21
2024-02-13T17:00:14.385Z,19.16
2024-02-13T17:02:42.466Z,19.16
2024-02-13T17:05:13.788Z,19.15
2024-02-13T17:07:42.142Z,19.17
2024-02-13T17:10:10.568Z,19.20
2024-02-13T17:12:39.614Z,19.19
2024-02-13T17:15:14.536Z,19.16
2024-02-13T17:17:43.204Z,19.11
2024-02-13T17:20:15.082Z,19.09
2024-02-13T17:22:42.959Z,19.07
2024-02-13T17:25:13.612Z,19.10
2024-02-13T17:27:42.800Z,19.09
2024-02-13T17:30:14.415Z,19.09
2024-02-13T17:32:48.172Z,19.08
2024-02-13T17:35:16.633Z,19.03
2024-02-13T17:37:44.407Z,19.02
2024-02-13T17:40:14.550Z,18.99
2024-02-13T17:42:42.543Z,18.98
2024-02-13T17:45:11.408Z,18.98
2024-02-13T17:47:39.338Z,19.00
2024-02-13T17:50:09.215Z,19.02
2024-02-13T17:52:37.682Z,18.99
2024-02-13T17:55:09.386Z,18.98
2024-02-13T17:57:39.922Z,18.95
2024-02-13T18:00:08.985Z,18.92
2024-02-13T18:02:43.200Z,18.93
2024-02-13T18:05:10.873Z,18.95
2024-02-13T18:07:38.705Z,19.00
2024-02-13T18:10:09.230Z,19.01
2024-02-13T18:13:02.815Z,19.02
2024-02-13T18:15:30.457Z,18.98
2024-02-13T18:17:58.765Z,18.96
2024-02-13T18:20:28.343Z,18.90
2024-02-13T18:23:28.384Z,18.90
2024-02-13T18:25:56.553Z,18.95
2024-02-13T18:28:24.206Z,18.96
2024-02-13T18:30:51.715Z,18.98
2024-02-13T18:33:19.503Z,18.96
2024-02-13T18:35:48.594Z,18.92
2024-02-13T18:38:16.591Z,18.91
2024-02-13T18:40:44.231Z,18.87
2024-02-13T18:43:11.886Z,18.85
2024-02-13T18:45:39.806Z,18.85
2024-02-13T18:48:08.472Z,18.85
2024-02-13T18:50:36.300Z,18.87
2024-02-13T18:53:04.807Z,18.87
2024-02-13T18:55:33.951Z,18.87
2024-02-13T18:58:01.472Z,18.86
2024-02-13T19:00:29.844Z,18.84
2024-02-13T19:02:57.532Z,18.81
2024-02-13T19:05:25.473Z,18.81
2024-02-13T19:07:53.279Z,18.83
2024-02-13T19:10:21.255Z,18.84
2024-02-13T19:12:48.920Z,18.85
2024-02-13T19:15:17.699Z,18.84
2024-02-13T19:17:45.645Z,18.81
2024-02-13T19:20:15.891Z,18.78
2024-02-13T19:22:43.486Z,18.74
2024-02-13T19:25:11.471Z,18.75
2024-02-13T19:27:40.265Z,18.76
2024-02-13T19:30:12.532Z,18.79
2024-02-13T19:32:40.205Z,18.81
2024-02-13T19:35:09.983Z,18.82
2024-02-13T19:37:38.263Z,18.80
2024-02-13T19:40:07.632Z,18.78
2024-02-13T19:42:36.682Z,18.78
2024-02-13T19:45:05.924Z,18.82
2024-02-13T19:47:34.704Z,18.83
2024-02-13T19:50:02.431Z,18.87
2024-02-13T19:52:31.005Z,18.88
2024-02-13T19:54:58.644Z,18.83
2024-02-13T19:57:28.903Z,18.81
2024-02-13T19:59:56.600Z,18.77
2024-02-13T20:02:25.952Z,18.78
2024-02-13T20:04:57.973Z,18.81
2024-02-13T20:07:26.008Z,18.83
2024-02-13T20:09:55.800Z,18.87
2024-02-13T20:12:25.600Z,18.88
2024-02-13T20:14:53.194Z,18.88
2024-02-13T20:17:20.872Z,18.86
2024-02-13T20:19:48.709Z,18.82
2024-02-13T20:22:16.467Z,18.86
2024-02-13T20:24:44.064Z,18.90
2024-02-13T20:27:11.652Z,18.91
2024-02-13T20:29:39.223Z,18.91
2024-02-13T20:32:07.326Z,18.85
2024-02-13T20:34:35.629Z,18.76
2024-02-13T20:37:05.022Z,18.66
2024-02-13T20:39:32.847Z,18.60
2024-02-13T20:42:03.593Z,18.54
2024-02-13T20:44:31.340Z,18.53
2024-02-13T20:46:58.978Z,18.54
2024-02-13T20:49:27.565Z,18.56
2024-02-13T20:51:55.299Z,18.59
2024-02-13T20:54:22.957Z,18.55
2024-02-13T20:56:51.787Z,18.50
2024-02-13T20:59:19.503Z,18.45
2024-02-13T21:01:49.231Z,18.48
2024-02-13T21:04:17.270Z,18.50
2024-02-13T21:06:46.008Z,18.58
2024-02-13T21:09:13.873Z,18.61
2024-02-13T21:11:42.301Z,18.64
2024-02-13T21:14:10.555Z,18.65
2024-02-13T21:16:38.280Z,18.62
2024-02-13T21:19:09.050Z,18.58
2024-02-13T21:21:55.482Z,18.57
2024-02-13T21:24:23.081Z,18.57
2024-02-13T21:26:50.823Z,18.57
2024-02-13T21:36:10.124Z,18.41
2024-02-13T21:38:39.275Z,18.30
2024-02-13T21:41:07.086Z,18.26
2024-02-13T21:43:34.968Z,18.28
2024-02-13T21:46:02.459Z,18.29
2024-02-13T21:48:30.325Z,18.30
2024-02-13T21:50:59.705Z,18.29
2024-02-13T21:53:27.496Z,18.28
2024-02-13T21:55:55.226Z,18.28
2024-02-13T21:58:23.274Z,18.28
2024-02-13T22:00:52.285Z,18.29
2024-02-13T22:03:19.808Z,18.31
2024-02-13T22:05:47.429Z,18.30
2024-02-13T22:08:15.517Z,18.32
2024-02-13T22:10:43.112Z,18.37
2024-02-13T22:13:10.601Z,18.41
2024-02-13T22:15:38.074Z,18.42
2024-02-13T22:18:06.189Z,18.45
2024-02-13T22:20:38.204Z,18.51
2024-02-13T22:23:08.004Z,18.59
2024-02-13T22:25:36.463Z,18.65
2024-02-13T22:28:06.725Z,18.68
2024-02-13T22:30:34.354Z,18.71
2024-02-13T22:33:04.312Z,18.71
2024-02-13T22:35:31.848Z,18.70
2024-02-13T22:37:59.421Z,18.68
2024-02-13T22:40:27.303Z,18.68
2024-02-13T22:42:54.786Z,18.69
2024-02-13T22:45:22.286Z,18.69
2024-02-13T22:48:00.227Z,18.68
2024-02-13T22:50:28.512Z,18.65
2024-02-13T22:53:00.039Z,18.59
2024-02-13T22:55:28.087Z,18.52
2024-02-13T22:57:55.694Z,18.49
2024-02-13T23:00:42.233Z,18.47
2024-02-13T23:03:10.115Z,18.44
2024-02-13T23:05:38.879Z,18.41
2024-02-13T23:08:09.141Z,18.38
2024-02-13T23:10:38.375Z,18.33
2024-02-13T23:13:06.244Z,18.26
2024-02-13T23:15:33.731Z,18.17
2024-02-13T23:18:02.607Z,18.10
2024-02-13T23:20:30.987Z,18.07
2024-02-13T23:23:00.020Z,18.07
2024-02-13T23:25:27.525Z,18.09
2024-02-13T23:27:55.514Z,18.11
2024-02-13T23:30:23.197Z,18.12
2024-02-13T23:32:50.723Z,18.11
2024-02-13T23:35:21.166Z,18.08
2024-02-13T23:37:48.714Z,18.05
2024-02-13T23:40:18.019Z,18.04
2024-02-13T23:42:48.871Z,17.99
2024-02-13T23:45:16.438Z,17.97
2024-02-13T23:47:44.278Z,17.97
2024-02-13T23:50:14.821Z,17.94
2024-02-13T23:52:42.552Z,17.91
2024-02-13T23:55:10.885Z,17.83
2024-02-13T23:57:41.400Z,17.77
